sensor_id;sensor_type;location;lat;lon;timestamp;temperature;humidity
34008;DHT22;41085;51.594;7.138;2023-03-03T00:00:35;18.00;90.10
34008;DHT22;41085;51.594;7.138;2023-03-03T00:04:35;18.20;90.20
34008;DHT22;41085;51.594;7.138;2023-03-03T00:08:36;18.10;90.00
34008;DHT22;41085;51.594;7.138;2023-03-03T00:12:48;17.70;89.20
34008;DHT22;41085;51.594;7.138;2023-03-03T00:17:27;15.80;88.80
34008;DHT22;41085;51.594;7.138;2023-03-03T00:22:27;16.10;87.60
34008;DHT22;41085;51.594;7.138;2023-03-03T00:26:37;16.40;89.50
34008;DHT22;41085;51.594;7.138;2023-03-03T00:30:38;16.70;88.50
34008;DHT22;41085;51.594;7.138;2023-03-03T00:34:40;15.80;88.80
34008;DHT22;41085;51.594;7.138;2023-03-03T00:38:45;15.40;87.70
34008;DHT22;41085;51.594;7.138;2023-03-03T00:42:49;16.60;89.30
34008;DHT22;41085;51.594;7.138;2023-03-03T00:46:50;18.70;89.60
34008;DHT22;41085;51.594;7.138;2023-03-03T00:50:58;17.30;89.20
34008;DHT22;41085;51.594;7.138;2023-03-03T00:55:29;15.50;87.70
34008;DHT22;41085;51.594;7.138;2023-03-03T00:59:53;16.00;87.40
34008;DHT22;41085;51.594;7.138;2023-03-03T01:08:37;15.80;88.90
34008;DHT22;41085;51.594;7.138;2023-03-03T01:13:02;14.70;89.80
34008;DHT22;41085;51.594;7.138;2023-03-03T01:17:03;15.70;88.90
34008;DHT22;41085;51.594;7.138;2023-03-03T01:21:03;15.60;89.00
34008;DHT22;41085;51.594;7.138;2023-03-03T01:25:17;17.00;90.70
34008;DHT22;41085;51.594;7.138;2023-03-03T01:29:56;18.70;90.80
34008;DHT22;41085;51.594;7.138;2023-03-03T01:50:04;16.20;89.70
34008;DHT22;41085;51.594;7.138;2023-03-03T01:55:14;15.70;89.50
34008;DHT22;41085;51.594;7.138;2023-03-03T02:13:44;16.00;90.60
34008;DHT22;41085;51.594;7.138;2023-03-03T02:17:46;17.00;91.80
34008;DHT22;41085;51.594;7.138;2023-03-03T02:21:47;17.20;91.50
34008;DHT22;41085;51.594;7.138;2023-03-03T02:30:19;16.90;91.60
34008;DHT22;41085;51.594;7.138;2023-03-03T02:34:23;15.60;91.90
34008;DHT22;41085;51.594;7.138;2023-03-03T02:43:04;15.80;91.40
34008;DHT22;41085;51.594;7.138;2023-03-03T02:47:07;17.20;92.20
34008;DHT22;41085;51.594;7.138;2023-03-03T02:51:16;15.40;92.20
34008;DHT22;41085;51.594;7.138;2023-03-03T02:55:17;15.80;92.40
34008;DHT22;41085;51.594;7.138;2023-03-03T02:59:24;17.60;92.60
34008;DHT22;41085;51.594;7.138;2023-03-03T03:03:28;15.40;93.30
34008;DHT22;41085;51.594;7.138;2023-03-03T03:07:29;16.10;92.70
34008;DHT22;41085;51.594;7.138;2023-03-03T03:11:36;17.80;93.10
34008;DHT22;41085;51.594;7.138;2023-03-03T03:15:54;17.40;92.20
34008;DHT22;41085;51.594;7.138;2023-03-03T03:19:54;16.30;91.50
34008;DHT22;41085;51.594;7.138;2023-03-03T03:23:55;15.40;92.70
34008;DHT22;41085;51.594;7.138;2023-03-03T03:27:56;16.30;91.90
34008;DHT22;41085;51.594;7.138;2023-03-03T03:32:04;16.20;93.50
34008;DHT22;41085;51.594;7.138;2023-03-03T03:36:05;15.90;91.90
34008;DHT22;41085;51.594;7.138;2023-03-03T03:40:15;15.50;91.70
34008;DHT22;41085;51.594;7.138;2023-03-03T03:44:34;15.70;92.90
34008;DHT22;41085;51.594;7.138;2023-03-03T03:48:35;17.10;92.30
34008;DHT22;41085;51.594;7.138;2023-03-03T03:52:36;17.80;92.50
34008;DHT22;41085;51.594;7.138;2023-03-03T03:56:46;16.70;92.10
34008;DHT22;41085;51.594;7.138;2023-03-03T04:00:48;16.10;93.10
34008;DHT22;41085;51.594;7.138;2023-03-03T04:05:10;15.80;92.70
34008;DHT22;41085;51.594;7.138;2023-03-03T04:09:21;16.50;92.30
34008;DHT22;41085;51.594;7.138;2023-03-03T04:18:11;15.70;91.70
34008;DHT22;41085;51.594;7.138;2023-03-03T04:26:51;16.30;92.00
34008;DHT22;41085;51.594;7.138;2023-03-03T04:31:13;15.70;92.30
34008;DHT22;41085;51.594;7.138;2023-03-03T04:39:46;15.40;91.70
34008;DHT22;41085;51.594;7.138;2023-03-03T04:43:56;17.40;93.60
34008;DHT22;41085;51.594;7.138;2023-03-03T04:48:06;16.50;94.30
34008;DHT22;41085;51.594;7.138;2023-03-03T04:52:07;16.20;92.60
34008;DHT22;41085;51.594;7.138;2023-03-03T05:00:55;15.60;91.90
34008;DHT22;41085;51.594;7.138;2023-03-03T05:04:58;18.30;92.90
34008;DHT22;41085;51.594;7.138;2023-03-03T05:09:05;14.50;91.60
34008;DHT22;41085;51.594;7.138;2023-03-03T05:13:06;17.80;93.20
34008;DHT22;41085;51.594;7.138;2023-03-03T05:17:17;16.70;93.00
34008;DHT22;41085;51.594;7.138;2023-03-03T05:21:43;15.40;92.40
34008;DHT22;41085;51.594;7.138;2023-03-03T05:25:47;15.60;91.90
34008;DHT22;41085;51.594;7.138;2023-03-03T05:29:48;18.50;93.10
34008;DHT22;41085;51.594;7.138;2023-03-03T05:33:50;17.10;92.90
34008;DHT22;41085;51.594;7.138;2023-03-03T05:37:55;15.40;94.30
34008;DHT22;41085;51.594;7.138;2023-03-03T05:41:57;19.00;93.30
34008;DHT22;41085;51.594;7.138;2023-03-03T05:45:59;18.70;93.20
34008;DHT22;41085;51.594;7.138;2023-03-03T05:50:28;15.50;92.80
34008;DHT22;41085;51.594;7.138;2023-03-03T05:54:44;15.60;92.30
34008;DHT22;41085;51.594;7.138;2023-03-03T05:58:50;15.80;93.10
34008;DHT22;41085;51.594;7.138;2023-03-03T06:02:51;16.30;92.10
34008;DHT22;41085;51.594;7.138;2023-03-03T06:06:59;16.00;93.40
34008;DHT22;41085;51.594;7.138;2023-03-03T06:11:05;15.00;93.10
34008;DHT22;41085;51.594;7.138;2023-03-03T06:15:17;16.30;92.50
34008;DHT22;41085;51.594;7.138;2023-03-03T06:19:21;16.40;92.10
34008;DHT22;41085;51.594;7.138;2023-03-03T06:23:23;15.70;93.10
34008;DHT22;41085;51.594;7.138;2023-03-03T06:27:25;15.50;92.60
34008;DHT22;41085;51.594;7.138;2023-03-03T06:31:50;16.00;92.80
34008;DHT22;41085;51.594;7.138;2023-03-03T06:36:23;15.50;91.50
34008;DHT22;41085;51.594;7.138;2023-03-03T06:40:24;17.40;92.70
34008;DHT22;41085;51.594;7.138;2023-03-03T06:44:25;16.20;92.40
34008;DHT22;41085;51.594;7.138;2023-03-03T06:48:26;18.20;92.70
34008;DHT22;41085;51.594;7.138;2023-03-03T06:52:27;18.20;93.20
34008;DHT22;41085;51.594;7.138;2023-03-03T06:56:27;18.10;92.70
34008;DHT22;41085;51.594;7.138;2023-03-03T07:00:29;18.50;92.20
34008;DHT22;41085;51.594;7.138;2023-03-03T07:04:32;13.90;81.40
34008;DHT22;41085;51.594;7.138;2023-03-03T07:08:39;13.00;80.50
34008;DHT22;41085;51.594;7.138;2023-03-03T07:12:40;15.10;83.10
34008;DHT22;41085;51.594;7.138;2023-03-03T07:16:41;11.80;84.80
34008;DHT22;41085;51.594;7.138;2023-03-03T07:20:42;16.00;92.90
34008;DHT22;41085;51.594;7.138;2023-03-03T07:24:48;17.40;92.10
34008;DHT22;41085;51.594;7.138;2023-03-03T07:28:55;14.10;87.30
34008;DHT22;41085;51.594;7.138;2023-03-03T07:32:58;15.70;89.40
34008;DHT22;41085;51.594;7.138;2023-03-03T07:37:03;16.30;91.00
34008;DHT22;41085;51.594;7.138;2023-03-03T07:41:15;15.80;89.60
34008;DHT22;41085;51.594;7.138;2023-03-03T07:45:30;17.10;90.20
34008;DHT22;41085;51.594;7.138;2023-03-03T07:49:36;15.50;88.30
34008;DHT22;41085;51.594;7.138;2023-03-03T07:53:37;16.30;90.80
34008;DHT22;41085;51.594;7.138;2023-03-03T07:57:37;18.30;92.60
34008;DHT22;41085;51.594;7.138;2023-03-03T08:01:43;13.90;92.00
34008;DHT22;41085;51.594;7.138;2023-03-03T08:05:48;14.70;91.30
34008;DHT22;41085;51.594;7.138;2023-03-03T08:10:31;17.30;91.70
34008;DHT22;41085;51.594;7.138;2023-03-03T08:14:36;15.40;89.60
34008;DHT22;41085;51.594;7.138;2023-03-03T08:18:46;16.60;91.60
34008;DHT22;41085;51.594;7.138;2023-03-03T08:22:50;16.70;91.60
34008;DHT22;41085;51.594;7.138;2023-03-03T08:26:58;18.60;93.90
34008;DHT22;41085;51.594;7.138;2023-03-03T08:31:07;18.00;96.00
34008;DHT22;41085;51.594;7.138;2023-03-03T08:35:11;16.30;96.70
34008;DHT22;41085;51.594;7.138;2023-03-03T08:43:47;13.20;89.60
34008;DHT22;41085;51.594;7.138;2023-03-03T08:47:53;16.50;92.60
34008;DHT22;41085;51.594;7.138;2023-03-03T08:52:04;15.90;93.00
34008;DHT22;41085;51.594;7.138;2023-03-03T08:56:11;17.20;96.60
34008;DHT22;41085;51.594;7.138;2023-03-03T09:00:16;17.70;95.60
34008;DHT22;41085;51.594;7.138;2023-03-03T09:04:37;15.00;92.70
34008;DHT22;41085;51.594;7.138;2023-03-03T09:23:56;16.10;90.70
34008;DHT22;41085;51.594;7.138;2023-03-03T09:29:24;15.30;90.40
34008;DHT22;41085;51.594;7.138;2023-03-03T09:48:54;15.10;90.40
34008;DHT22;41085;51.594;7.138;2023-03-03T10:04:02;14.90;90.30
34008;DHT22;41085;51.594;7.138;2023-03-03T10:09:07;15.00;90.40
34008;DHT22;41085;51.594;7.138;2023-03-03T10:13:44;15.40;90.50
34008;DHT22;41085;51.594;7.138;2023-03-03T10:23:28;14.90;90.30
34008;DHT22;41085;51.594;7.138;2023-03-03T11:03:37;14.70;90.10
34008;DHT22;41085;51.594;7.138;2023-03-03T11:13:39;18.90;91.40
34008;DHT22;41085;51.594;7.138;2023-03-03T11:22:54;15.80;90.40
34008;DHT22;41085;51.594;7.138;2023-03-03T11:46:37;15.10;90.30
34008;DHT22;41085;51.594;7.138;2023-03-03T11:51:06;14.60;91.80
34008;DHT22;41085;51.594;7.138;2023-03-03T11:55:35;14.90;90.40
34008;DHT22;41085;51.594;7.138;2023-03-03T12:05:03;15.10;90.30
34008;DHT22;41085;51.594;7.138;2023-03-03T12:24:45;12.10;88.80
34008;DHT22;41085;51.594;7.138;2023-03-03T12:45:27;15.70;90.40
34008;DHT22;41085;51.594;7.138;2023-03-03T12:50:08;15.00;90.10
34008;DHT22;41085;51.594;7.138;2023-03-03T13:18:40;15.40;90.20
34008;DHT22;41085;51.594;7.138;2023-03-03T13:23:11;16.70;91.80
34008;DHT22;41085;51.594;7.138;2023-03-03T13:37:47;15.80;90.20
34008;DHT22;41085;51.594;7.138;2023-03-03T13:42:02;16.30;91.10
34008;DHT22;41085;51.594;7.138;2023-03-03T13:46:26;15.50;90.10
34008;DHT22;41085;51.594;7.138;2023-03-03T14:00:11;14.90;93.20
34008;DHT22;41085;51.594;7.138;2023-03-03T14:04:53;15.30;90.10
34008;DHT22;41085;51.594;7.138;2023-03-03T14:09:57;15.30;91.80
34008;DHT22;41085;51.594;7.138;2023-03-03T14:19:36;15.40;90.30
34008;DHT22;41085;51.594;7.138;2023-03-03T14:24:21;15.40;91.20
34008;DHT22;41085;51.594;7.138;2023-03-03T14:28:43;15.00;90.00
34008;DHT22;41085;51.594;7.138;2023-03-03T14:33:14;17.70;91.70
34008;DHT22;41085;51.594;7.138;2023-03-03T14:37:47;14.70;89.90
34008;DHT22;41085;51.594;7.138;2023-03-03T14:42:03;15.20;90.10
34008;DHT22;41085;51.594;7.138;2023-03-03T14:46:34;14.60;91.40
34008;DHT22;41085;51.594;7.138;2023-03-03T14:51:30;15.60;90.30
34008;DHT22;41085;51.594;7.138;2023-03-03T14:56:38;14.80;89.90
34008;DHT22;41085;51.594;7.138;2023-03-03T15:06:01;14.90;90.00
34008;DHT22;41085;51.594;7.138;2023-03-03T15:10:38;14.50;89.90
34008;DHT22;41085;51.594;7.138;2023-03-03T15:15:19;16.00;91.90
34008;DHT22;41085;51.594;7.138;2023-03-03T15:19:53;14.60;91.10
34008;DHT22;41085;51.594;7.138;2023-03-03T15:24:18;14.80;91.20
34008;DHT22;41085;51.594;7.138;2023-03-03T15:32:52;15.70;90.20
34008;DHT22;41085;51.594;7.138;2023-03-03T15:50:30;14.80;89.90
34008;DHT22;41085;51.594;7.138;2023-03-03T15:54:40;13.50;89.20
34008;DHT22;41085;51.594;7.138;2023-03-03T16:03:15;15.20;90.10
34008;DHT22;41085;51.594;7.138;2023-03-03T16:21:17;13.70;89.40
34008;DHT22;41085;51.594;7.138;2023-03-03T16:25:30;15.10;90.10
34008;DHT22;41085;51.594;7.138;2023-03-03T16:44:58;15.10;90.10
34008;DHT22;41085;51.594;7.138;2023-03-03T16:57:54;15.60;90.40
34008;DHT22;41085;51.594;7.138;2023-03-03T17:20:46;16.40;90.60
34008;DHT22;41085;51.594;7.138;2023-03-03T23:17:04;14.70;90.40
34008;DHT22;41085;51.594;7.138;2023-03-03T23:21:05;14.50;93.00
34008;DHT22;41085;51.594;7.138;2023-03-03T23:26:03;14.60;93.50
34008;DHT22;41085;51.594;7.138;2023-03-03T23:30:44;14.70;92.20
34008;DHT22;41085;51.594;7.138;2023-03-03T23:35:26;13.90;92.00
